createdAt,value
2018-03-22T00:00:29.781Z,15.07
2018-03-22T00:01:06.495Z,15.98
2018-03-22T00:01:43.496Z,19.02
2018-03-22T00:02:20.132Z,18.92
2018-03-22T00:02:58.181Z,20.48
2018-03-22T00:03:33.990Z,17.20
2018-03-22T00:04:08.336Z,20.70
2018-03-22T00:04:45.029Z,18.98
2018-03-22T00:05:22.538Z,16.55
2018-03-22T00:05:59.800Z,14.85
2018-03-22T00:06:36.460Z,16.50
2018-03-22T00:07:13.559Z,19.77
2018-03-22T00:07:50.878Z,15.65
2018-03-22T00:08:28.180Z,22.45
2018-03-22T00:09:02.066Z,15.18
2018-03-22T00:09:36.103Z,19.20
2018-03-22T00:10:13.394Z,16.95
2018-03-22T00:10:50.253Z,14.93
2018-03-22T00:11:26.622Z,16.08
2018-03-22T00:12:02.906Z,16.65
2018-03-22T00:12:39.736Z,18.50
2018-03-22T00:13:16.571Z,15.18
2018-03-22T00:13:50.439Z,20.45
2018-03-22T00:14:24.298Z,17.20
2018-03-22T00:15:00.439Z,18.58
2018-03-22T00:15:36.959Z,16.85
2018-03-22T00:16:13.702Z,17.73
2018-03-22T00:16:50.175Z,17.75
2018-03-22T00:17:27.065Z,21.00
2018-03-22T00:18:03.534Z,17.40
2018-03-22T00:18:38.242Z,19.40
2018-03-22T00:19:12.092Z,15.32
2018-03-22T00:19:47.932Z,20.48
2018-03-22T00:20:24.838Z,20.65
2018-03-22T00:21:01.670Z,13.98
2018-03-22T00:21:37.301Z,17.60
2018-03-22T00:22:20.256Z,21.98
2018-03-22T00:22:54.542Z,19.05
2018-03-22T00:23:28.421Z,14.87
2018-03-22T00:24:02.312Z,21.40
2018-03-22T00:24:36.184Z,16.25
2018-03-22T00:25:10.076Z,19.65
2018-03-22T00:25:43.934Z,19.10
2018-03-22T00:26:17.931Z,17.73
2018-03-22T00:26:51.808Z,20.05
2018-03-22T00:27:25.676Z,15.82
2018-03-22T00:27:59.541Z,22.10
2018-03-22T00:28:33.406Z,15.25
2018-03-22T00:29:07.334Z,18.40
2018-03-22T00:29:41.202Z,17.35
2018-03-22T00:30:15.222Z,15.07
2018-03-22T00:30:49.099Z,21.92
2018-03-22T00:31:22.982Z,15.57
2018-03-22T00:31:56.845Z,23.40
2018-03-22T00:32:30.720Z,16.75
2018-03-22T00:33:04.598Z,17.85
2018-03-22T00:33:38.460Z,19.20
2018-03-22T00:34:12.441Z,14.95
2018-03-22T00:34:46.296Z,18.67
2018-03-22T00:35:20.150Z,16.80
2018-03-22T00:35:54.031Z,21.02
2018-03-22T00:36:28.028Z,15.85
2018-03-22T00:37:01.930Z,21.40
2018-03-22T00:37:35.793Z,15.30
2018-03-22T00:38:09.660Z,15.38
2018-03-22T00:38:43.525Z,15.93
2018-03-22T00:39:17.437Z,16.58
2018-03-22T00:39:51.283Z,16.75
2018-03-22T00:40:25.142Z,15.50
2018-03-22T00:40:59.471Z,18.17
2018-03-22T00:41:33.612Z,14.73
2018-03-22T00:42:07.477Z,18.30
2018-03-22T00:42:41.345Z,18.23
2018-03-22T00:43:15.211Z,23.75
2018-03-22T00:43:49.061Z,20.40
2018-03-22T00:44:23.286Z,21.45
2018-03-22T00:44:57.384Z,20.40
2018-03-22T00:45:31.227Z,18.58
2018-03-22T00:46:05.093Z,19.55
2018-03-22T00:46:39.093Z,19.23
2018-03-22T00:47:12.962Z,18.12
2018-03-22T00:47:46.855Z,15.82
2018-03-22T00:48:20.722Z,14.13
2018-03-22T00:48:54.584Z,16.83
2018-03-22T00:49:28.460Z,20.48
2018-03-22T00:50:02.452Z,15.90
2018-03-22T00:50:36.355Z,15.60
2018-03-22T00:51:10.233Z,16.15
2018-03-22T00:51:44.224Z,21.12
2018-03-22T00:52:18.091Z,22.15
2018-03-22T00:52:51.970Z,20.15
2018-03-22T00:53:25.837Z,22.40
2018-03-22T00:53:59.722Z,20.95
2018-03-22T00:54:33.592Z,16.33
2018-03-22T00:55:07.603Z,17.25
2018-03-22T00:55:41.466Z,15.35
2018-03-22T00:56:15.325Z,21.42
2018-03-22T00:56:49.504Z,19.12
2018-03-22T00:57:23.389Z,30.58
2018-03-22T00:57:57.380Z,18.58
2018-03-22T00:58:31.233Z,22.95
2018-03-22T00:59:05.474Z,19.42
2018-03-22T00:59:39.373Z,17.45
2018-03-22T01:00:13.267Z,16.10
2018-03-22T01:00:47.134Z,17.58
2018-03-22T01:01:20.985Z,20.75
2018-03-22T01:01:54.845Z,18.33
2018-03-22T01:02:28.704Z,22.55
2018-03-22T01:03:02.755Z,14.50
2018-03-22T01:03:36.644Z,19.48
2018-03-22T01:04:10.511Z,19.30
2018-03-22T01:04:44.546Z,18.92
2018-03-22T01:05:18.431Z,18.83
2018-03-22T01:05:52.474Z,22.52
2018-03-22T01:06:26.346Z,16.83
2018-03-22T01:07:00.332Z,23.52
2018-03-22T01:07:34.216Z,18.08
2018-03-22T01:08:08.110Z,18.40
2018-03-22T01:08:42.021Z,19.37
2018-03-22T01:09:15.886Z,23.20
2018-03-22T01:09:49.759Z,16.45
2018-03-22T01:10:23.790Z,22.55
2018-03-22T01:10:57.696Z,24.75
2018-03-22T01:11:31.720Z,17.37
2018-03-22T01:12:05.553Z,16.95
2018-03-22T01:12:39.478Z,20.85
2018-03-22T01:13:13.363Z,21.17
2018-03-22T01:13:47.234Z,20.88
2018-03-22T01:14:21.099Z,27.80
2018-03-22T01:14:54.993Z,21.05
2018-03-22T01:15:28.887Z,21.90
2018-03-22T01:16:02.968Z,17.45
2018-03-22T01:16:36.824Z,21.50
2018-03-22T01:17:10.743Z,20.23
2018-03-22T01:17:44.598Z,19.67
2018-03-22T01:18:18.641Z,18.87
2018-03-22T01:18:52.522Z,21.25
2018-03-22T01:19:26.549Z,21.08
2018-03-22T01:20:00.450Z,15.02
2018-03-22T01:20:34.314Z,20.80
2018-03-22T01:21:08.177Z,21.62
2018-03-22T01:21:42.108Z,18.87
2018-03-22T01:22:16.241Z,14.70
2018-03-22T01:22:50.107Z,20.88
2018-03-22T01:23:24.206Z,19.35
2018-03-22T01:23:58.073Z,17.30
2018-03-22T01:24:31.934Z,17.12
2018-03-22T01:25:06.092Z,28.38
2018-03-22T01:25:40.202Z,18.10
2018-03-22T01:26:14.199Z,17.35
2018-03-22T01:26:48.185Z,16.48
2018-03-22T01:27:22.049Z,20.42
2018-03-22T01:27:55.918Z,20.88
2018-03-22T01:28:29.781Z,17.10
2018-03-22T01:29:03.632Z,17.65
2018-03-22T01:29:37.489Z,24.55
2018-03-22T01:30:17.152Z,24.40
2018-03-22T01:30:51.026Z,15.57
2018-03-22T01:31:25.089Z,21.75
2018-03-22T01:31:58.950Z,22.67
2018-03-22T01:32:32.997Z,20.10
2018-03-22T01:33:06.862Z,21.83
2018-03-22T01:33:40.735Z,20.33
2018-03-22T01:34:14.685Z,18.87
2018-03-22T01:34:48.540Z,21.17
2018-03-22T01:35:22.567Z,17.58
2018-03-22T01:35:56.429Z,17.40
2018-03-22T01:36:30.289Z,25.37
2018-03-22T01:37:04.151Z,22.23
2018-03-22T01:37:38.137Z,25.30
2018-03-22T01:38:12.030Z,18.30
2018-03-22T01:38:45.932Z,21.77
2018-03-22T01:39:19.794Z,18.52
2018-03-22T01:39:53.727Z,22.58
2018-03-22T01:40:27.639Z,19.05
2018-03-22T01:41:01.536Z,14.75
2018-03-22T01:41:35.413Z,20.73
2018-03-22T01:42:09.281Z,23.95
2018-03-22T01:42:43.146Z,22.98
2018-03-22T01:43:17.014Z,23.87
2018-03-22T01:43:50.890Z,20.77
2018-03-22T01:44:24.784Z,25.85
2018-03-22T01:44:58.646Z,21.20
2018-03-22T01:45:32.693Z,20.15
2018-03-22T01:46:06.552Z,21.12
2018-03-22T01:46:40.452Z,23.38
2018-03-22T01:47:14.322Z,22.13
2018-03-22T01:47:48.193Z,22.83
2018-03-22T01:48:22.051Z,19.90
2018-03-22T01:48:55.926Z,24.77
2018-03-22T01:49:30.060Z,28.23
2018-03-22T01:50:03.948Z,19.25
2018-03-22T01:50:38.241Z,20.67
2018-03-22T01:51:12.096Z,21.45
2018-03-22T01:51:45.967Z,19.42
2018-03-22T01:52:19.826Z,22.23
2018-03-22T01:52:59.453Z,35.90
2018-03-22T01:53:33.339Z,23.52
2018-03-22T01:54:07.200Z,28.95
2018-03-22T01:54:41.091Z,22.10
2018-03-22T01:55:14.987Z,21.25
2018-03-22T01:55:48.889Z,20.85
2018-03-22T01:56:22.831Z,22.02
2018-03-22T01:56:56.828Z,21.80
2018-03-22T01:57:30.686Z,19.75
2018-03-22T01:58:04.737Z,22.98
2018-03-22T01:58:38.598Z,26.20
2018-03-22T01:59:12.463Z,23.90
2018-03-22T01:59:46.812Z,27.83
2018-03-22T02:00:20.671Z,24.35
2018-03-22T02:00:54.828Z,24.15
2018-03-22T02:01:28.805Z,20.35
2018-03-22T02:02:02.662Z,22.87
2018-03-22T02:02:36.575Z,24.23
2018-03-22T02:03:10.602Z,18.48
2018-03-22T02:03:44.519Z,18.20
2018-03-22T02:04:18.606Z,20.65
2018-03-22T02:04:52.457Z,21.15
2018-03-22T02:05:26.333Z,24.25
2018-03-22T02:06:00.203Z,22.27
2018-03-22T02:06:34.091Z,25.25
2018-03-22T02:07:07.950Z,23.35
2018-03-22T02:07:41.823Z,23.30
2018-03-22T02:08:15.688Z,22.60
2018-03-22T02:08:49.754Z,24.40
2018-03-22T02:09:23.613Z,21.42
2018-03-22T02:09:57.663Z,28.15
2018-03-22T02:10:31.528Z,22.62
2018-03-22T02:11:05.404Z,26.50
2018-03-22T02:11:39.432Z,26.33
2018-03-22T02:12:13.297Z,27.40
2018-03-22T02:12:47.152Z,20.05
2018-03-22T02:13:21.221Z,28.70
2018-03-22T02:13:55.081Z,22.35
2018-03-22T02:14:29.009Z,21.75
2018-03-22T02:15:02.874Z,26.58
2018-03-22T02:15:36.733Z,22.17
2018-03-22T02:16:10.614Z,22.70
2018-03-22T02:16:44.472Z,24.48
2018-03-22T02:17:18.322Z,21.25
2018-03-22T02:17:52.182Z,24.63
2018-03-22T02:18:26.175Z,21.25
2018-03-22T02:19:00.039Z,20.67
2018-03-22T02:19:33.908Z,21.55
2018-03-22T02:20:07.773Z,24.50
2018-03-22T02:20:41.634Z,28.27
2018-03-22T02:21:15.551Z,20.95
2018-03-22T02:21:49.581Z,23.52
2018-03-22T02:22:23.444Z,24.67
2018-03-22T02:22:57.348Z,29.98
2018-03-22T02:23:31.236Z,24.17
2018-03-22T02:24:05.098Z,27.20
2018-03-22T02:24:39.033Z,23.55
2018-03-22T02:25:12.932Z,20.62
2018-03-22T02:25:46.785Z,38.45
2018-03-22T02:26:20.659Z,40.60
2018-03-22T02:26:54.516Z,22.55
2018-03-22T02:27:28.404Z,21.33
2018-03-22T02:28:02.258Z,29.67
2018-03-22T02:28:36.397Z,27.60
2018-03-22T02:29:10.396Z,25.10
2018-03-22T02:29:44.257Z,23.38
2018-03-22T02:30:18.105Z,25.08
2018-03-22T02:30:52.090Z,21.60
2018-03-22T02:31:26.008Z,32.13
2018-03-22T02:31:59.882Z,36.35
2018-03-22T02:32:33.775Z,22.83
2018-03-22T02:33:07.773Z,22.58
2018-03-22T02:33:41.875Z,27.67
2018-03-22T02:34:15.770Z,25.17
2018-03-22T02:34:49.632Z,23.05
2018-03-22T02:35:23.657Z,20.08
2018-03-22T02:35:57.542Z,24.17
2018-03-22T02:36:31.580Z,28.35
2018-03-22T02:37:05.654Z,25.15
2018-03-22T02:37:39.517Z,30.17
2018-03-22T02:38:13.638Z,24.50
2018-03-22T02:38:47.505Z,23.92
2018-03-22T02:39:21.433Z,27.67
2018-03-22T02:39:55.286Z,31.45
2018-03-22T02:40:29.142Z,25.12
2018-03-22T02:41:03.125Z,25.50
2018-03-22T02:41:37.330Z,28.23
2018-03-22T02:42:11.310Z,31.92
2018-03-22T02:42:45.231Z,22.75
2018-03-22T02:43:19.061Z,21.75
2018-03-22T02:43:52.926Z,38.70
2018-03-22T02:44:26.784Z,34.53
2018-03-22T02:45:00.645Z,31.27
2018-03-22T02:45:34.695Z,25.62
2018-03-22T02:46:08.558Z,24.55
2018-03-22T02:46:42.683Z,28.73
2018-03-22T02:47:16.689Z,29.40
2018-03-22T02:47:50.558Z,21.58
2018-03-22T02:48:24.429Z,29.15
2018-03-22T02:48:58.300Z,31.08
2018-03-22T02:49:32.165Z,25.02
2018-03-22T02:50:06.041Z,27.35
2018-03-22T02:50:39.957Z,23.52
2018-03-22T02:51:13.821Z,23.87
2018-03-22T02:51:47.694Z,24.00
2018-03-22T02:52:21.566Z,25.83
2018-03-22T02:52:55.548Z,31.05
2018-03-22T02:53:29.404Z,30.08
2018-03-22T02:54:03.268Z,27.70
2018-03-22T02:54:37.145Z,25.05
2018-03-22T02:55:11.019Z,25.05
2018-03-22T02:55:44.885Z,26.58
2018-03-22T02:56:19.604Z,29.65
2018-03-22T02:56:53.600Z,26.70
2018-03-22T02:57:27.472Z,25.15
2018-03-22T02:58:01.450Z,25.60
2018-03-22T02:58:35.404Z,23.87
2018-03-22T02:59:09.262Z,27.58
2018-03-22T02:59:43.409Z,28.00
2018-03-22T03:00:17.511Z,27.23
2018-03-22T03:00:51.499Z,21.33
2018-03-22T03:01:25.401Z,22.17
2018-03-22T03:01:59.274Z,25.25
2018-03-22T03:02:33.497Z,26.75
2018-03-22T03:03:07.363Z,24.95
2018-03-22T03:03:41.498Z,23.50
2018-03-22T03:04:15.362Z,24.10
2018-03-22T03:04:49.237Z,30.92
2018-03-22T03:05:23.129Z,27.98
2018-03-22T03:05:56.997Z,24.67
2018-03-22T03:06:30.870Z,26.23
2018-03-22T03:07:04.962Z,30.92
2018-03-22T03:07:38.964Z,28.27
2018-03-22T03:08:13.066Z,26.73
2018-03-22T03:08:46.930Z,24.95
2018-03-22T03:09:20.813Z,24.67
2018-03-22T03:09:54.842Z,28.55
2018-03-22T03:10:28.683Z,22.45
2018-03-22T03:11:02.542Z,25.00
2018-03-22T03:11:36.425Z,26.37
2018-03-22T03:12:10.303Z,25.35
2018-03-22T03:12:44.221Z,29.37
2018-03-22T03:13:18.086Z,26.77
2018-03-22T03:13:52.017Z,24.73
2018-03-22T03:14:25.878Z,28.10
2018-03-22T03:14:59.913Z,25.92
2018-03-22T03:15:33.902Z,24.73
2018-03-22T03:16:07.767Z,23.90
2018-03-22T03:16:41.804Z,24.60
2018-03-22T03:17:15.710Z,31.23
2018-03-22T03:17:49.586Z,24.60
2018-03-22T03:18:23.579Z,27.10
2018-03-22T03:18:57.447Z,30.25
2018-03-22T03:19:31.498Z,28.55
2018-03-22T03:20:05.358Z,26.87
2018-03-22T03:20:39.576Z,26.10
2018-03-22T03:21:13.572Z,27.50
2018-03-22T03:21:47.783Z,29.73
2018-03-22T03:22:21.704Z,24.85
2018-03-22T03:22:55.552Z,29.87
2018-03-22T03:23:29.459Z,22.77
2018-03-22T03:24:03.320Z,33.45
2018-03-22T03:24:37.181Z,26.15
2018-03-22T03:25:11.152Z,27.45
2018-03-22T03:25:45.061Z,25.45
2018-03-22T03:26:18.938Z,27.65
2018-03-22T03:26:53.147Z,28.80
2018-03-22T03:27:27.242Z,26.95
2018-03-22T03:28:01.103Z,28.92
2018-03-22T03:28:35.153Z,25.92
2018-03-22T03:29:09.666Z,34.25
2018-03-22T03:29:43.546Z,25.75
2018-03-22T03:30:17.603Z,27.75
2018-03-22T03:30:51.417Z,26.35
2018-03-22T03:31:25.273Z,28.67
2018-03-22T03:31:59.222Z,30.00
2018-03-22T03:32:33.423Z,23.48
2018-03-22T03:33:07.284Z,24.70
2018-03-22T03:33:41.434Z,28.10
2018-03-22T03:34:15.302Z,30.33
2018-03-22T03:34:49.162Z,27.50
2018-03-22T03:35:23.026Z,33.20
2018-03-22T03:35:57.099Z,33.35
2018-03-22T03:36:30.966Z,26.00
2018-03-22T03:37:04.835Z,27.15
2018-03-22T03:37:38.726Z,28.12
2018-03-22T03:38:12.580Z,27.98
2018-03-22T03:38:46.442Z,26.42
2018-03-22T03:39:20.300Z,28.58
2018-03-22T03:39:54.165Z,29.08
2018-03-22T03:40:28.025Z,25.20
2018-03-22T03:41:01.890Z,30.98
2018-03-22T03:41:35.753Z,30.92
2018-03-22T03:42:09.745Z,31.15
2018-03-22T03:42:43.745Z,31.65
2018-03-22T03:43:17.615Z,27.05
2018-03-22T03:43:51.849Z,29.50
2018-03-22T03:44:25.713Z,30.02
2018-03-22T03:44:59.582Z,33.08
2018-03-22T03:45:33.747Z,35.00
2018-03-22T03:46:07.606Z,34.63
2018-03-22T03:46:41.477Z,30.62
2018-03-22T03:47:15.528Z,26.12
2018-03-22T03:47:49.401Z,33.28
2018-03-22T03:48:23.281Z,28.10
2018-03-22T03:48:57.411Z,30.67
2018-03-22T03:49:31.410Z,31.23
2018-03-22T03:50:05.265Z,26.62
2018-03-22T03:50:39.142Z,30.40
2018-03-22T03:51:13.093Z,33.55
2018-03-22T03:51:46.947Z,23.77
2018-03-22T03:52:20.995Z,37.03
2018-03-22T03:52:55.004Z,27.52
2018-03-22T03:53:28.861Z,33.60
2018-03-22T03:54:02.722Z,32.38
2018-03-22T03:54:36.875Z,31.27
2018-03-22T03:55:10.738Z,29.90
2018-03-22T03:55:44.675Z,25.92
2018-03-22T03:56:18.549Z,32.55
2018-03-22T03:56:52.409Z,32.05
2018-03-22T03:57:26.454Z,32.08
2018-03-22T03:58:00.467Z,26.62
2018-03-22T03:58:34.328Z,29.08
2018-03-22T03:59:08.205Z,25.58
2018-03-22T03:59:42.174Z,26.25
2018-03-22T04:00:16.468Z,34.70
2018-03-22T04:00:50.329Z,29.02
2018-03-22T04:01:24.322Z,23.42
2018-03-22T04:01:58.434Z,23.92
2018-03-22T04:02:32.328Z,29.92
2018-03-22T04:03:06.210Z,34.42
2018-03-22T04:03:40.441Z,31.50
2018-03-22T04:04:14.334Z,30.62
2018-03-22T04:04:48.201Z,30.15
2018-03-22T04:05:22.065Z,29.42
2018-03-22T04:05:55.926Z,34.28
2018-03-22T04:06:29.821Z,28.17
2018-03-22T04:07:03.680Z,26.98
2018-03-22T04:07:37.701Z,26.02
2018-03-22T04:08:11.580Z,26.50
2018-03-22T04:08:45.593Z,26.73
2018-03-22T04:09:19.458Z,28.45
2018-03-22T04:09:53.325Z,28.25
2018-03-22T04:10:27.478Z,26.83
2018-03-22T04:11:01.380Z,25.08
2018-03-22T04:11:35.249Z,30.02
2018-03-22T04:12:09.287Z,29.40
2018-03-22T04:12:43.158Z,32.20
2018-03-22T04:13:17.381Z,26.80
2018-03-22T04:13:51.258Z,30.58
2018-03-22T04:14:25.124Z,29.27
2018-03-22T04:14:58.986Z,30.20
2018-03-22T04:15:32.857Z,28.20
2018-03-22T04:16:06.733Z,28.70
2018-03-22T04:16:40.592Z,29.83
2018-03-22T04:17:14.642Z,26.70
2018-03-22T04:17:48.630Z,28.45
2018-03-22T04:18:22.518Z,27.45
2018-03-22T04:18:56.377Z,26.77
2018-03-22T04:19:30.420Z,32.45
2018-03-22T04:20:04.281Z,25.42
2018-03-22T04:20:39.355Z,24.25
2018-03-22T04:21:13.332Z,27.37
2018-03-22T04:21:47.193Z,27.58
2018-03-22T04:22:21.070Z,27.33
2018-03-22T04:22:55.233Z,23.70
2018-03-22T04:23:29.136Z,26.98
2018-03-22T04:24:03.017Z,26.83
2018-03-22T04:24:36.873Z,28.52
2018-03-22T04:25:10.740Z,24.52
2018-03-22T04:25:44.704Z,30.23
2018-03-22T04:26:18.581Z,26.27
2018-03-22T04:26:52.525Z,29.87
2018-03-22T04:27:26.388Z,26.50
2018-03-22T04:28:00.247Z,27.87
2018-03-22T04:28:34.181Z,27.40
2018-03-22T04:29:08.028Z,26.20
2018-03-22T04:29:42.086Z,26.70
2018-03-22T04:30:16.092Z,31.75
2018-03-22T04:30:49.973Z,25.37
2018-03-22T04:31:23.847Z,28.27
2018-03-22T04:31:57.717Z,26.52
2018-03-22T04:32:31.672Z,24.08
2018-03-22T04:33:05.525Z,35.28
2018-03-22T04:33:39.645Z,28.75
2018-03-22T04:34:13.545Z,24.45
2018-03-22T04:34:47.406Z,26.45
2018-03-22T04:35:21.346Z,24.95
2018-03-22T04:35:55.406Z,26.37
2018-03-22T04:36:29.273Z,22.67
2018-03-22T04:37:03.230Z,27.70
2018-03-22T04:37:37.086Z,25.55
2018-03-22T04:38:10.960Z,29.80
2018-03-22T04:38:45.009Z,25.55
2018-03-22T04:39:18.871Z,23.23
2018-03-22T04:39:52.740Z,26.35
2018-03-22T04:40:26.696Z,26.40
2018-03-22T04:41:00.554Z,27.33
2018-03-22T04:41:34.422Z,27.48
2018-03-22T04:42:08.295Z,23.23
2018-03-22T04:42:42.146Z,25.83
2018-03-22T04:43:16.170Z,29.65
2018-03-22T04:43:50.079Z,29.25
2018-03-22T04:44:23.948Z,28.05
2018-03-22T04:44:57.817Z,31.77
2018-03-22T04:45:31.688Z,26.33
2018-03-22T04:46:05.549Z,31.90
2018-03-22T04:46:39.416Z,23.05
2018-03-22T04:47:13.645Z,23.23
2018-03-22T04:47:47.524Z,29.55
2018-03-22T04:48:21.434Z,28.15
2018-03-22T04:48:55.322Z,24.65
2018-03-22T04:49:29.329Z,26.75
2018-03-22T04:50:03.185Z,29.50
2018-03-22T04:50:37.050Z,26.05
2018-03-22T04:51:10.944Z,27.52
2018-03-22T04:51:45.317Z,27.40
2018-03-22T04:52:19.221Z,30.77
2018-03-22T04:52:53.108Z,22.73
2018-03-22T04:53:27.005Z,23.08
2018-03-22T04:54:01.214Z,24.48
2018-03-22T04:54:35.202Z,31.90
2018-03-22T04:55:09.102Z,27.35
2018-03-22T04:55:43.025Z,25.08
2018-03-22T04:56:16.866Z,29.75
2018-03-22T04:56:50.989Z,22.37
2018-03-22T04:57:24.986Z,26.50
2018-03-22T04:57:58.833Z,22.95
2018-03-22T04:58:32.709Z,25.77
2018-03-22T04:59:06.675Z,28.08
2018-03-22T04:59:40.536Z,25.70
2018-03-22T05:00:14.671Z,32.75
2018-03-22T05:00:48.677Z,29.30
2018-03-22T05:01:22.533Z,28.73
2018-03-22T05:01:56.662Z,26.52
2018-03-22T05:02:30.523Z,29.23
2018-03-22T05:03:04.595Z,25.75
2018-03-22T05:03:38.655Z,30.83
2018-03-22T05:04:12.540Z,33.97
2018-03-22T05:04:46.397Z,27.70
2018-03-22T05:05:20.266Z,27.08
2018-03-22T05:05:54.125Z,25.33
2018-03-22T05:06:28.142Z,28.83
2018-03-22T05:07:02.027Z,31.90
2018-03-22T05:07:36.084Z,26.52
2018-03-22T05:08:10.133Z,27.15
2018-03-22T05:08:44.008Z,24.35
2018-03-22T05:09:18.015Z,28.17
2018-03-22T05:09:52.159Z,30.50
2018-03-22T05:10:26.219Z,30.65
2018-03-22T05:11:00.080Z,34.20
2018-03-22T05:11:34.131Z,28.75
2018-03-22T05:12:08.001Z,29.85
2018-03-22T05:12:42.051Z,29.15
2018-03-22T05:13:16.119Z,30.15
2018-03-22T05:13:49.984Z,26.15
2018-03-22T05:14:24.028Z,31.10
2018-03-22T05:14:58.112Z,32.15
2018-03-22T05:15:31.978Z,32.65
2018-03-22T05:16:06.574Z,27.37
2018-03-22T05:16:40.442Z,33.63
2018-03-22T05:17:14.289Z,27.90
2018-03-22T05:17:48.494Z,28.00
2018-03-22T05:18:22.416Z,35.00
2018-03-22T05:18:56.398Z,32.90
2018-03-22T05:19:30.299Z,34.55
2018-03-22T05:20:04.342Z,31.95
2018-03-22T05:20:38.200Z,31.55
2018-03-22T05:21:12.073Z,30.60
2018-03-22T05:21:46.076Z,30.50
2018-03-22T05:22:21.398Z,34.20
2018-03-22T05:22:55.255Z,28.08
2018-03-22T05:23:31.520Z,29.75
2018-03-22T05:24:05.365Z,34.47
2018-03-22T05:24:39.269Z,30.92
2018-03-22T05:25:13.150Z,35.83
2018-03-22T05:25:47.008Z,35.22
2018-03-22T05:26:21.033Z,37.25
2018-03-22T05:26:54.956Z,34.15
2018-03-22T05:27:28.925Z,38.47
2018-03-22T05:28:02.791Z,35.28
2018-03-22T05:28:36.817Z,33.65
2018-03-22T05:29:10.690Z,39.38
2018-03-22T05:29:44.919Z,34.65
2018-03-22T05:30:18.801Z,38.92
2018-03-22T05:30:52.664Z,42.00
2018-03-22T05:31:26.698Z,37.22
2018-03-22T05:32:00.705Z,46.28
2018-03-22T05:32:34.579Z,35.95
2018-03-22T05:33:08.452Z,33.45
2018-03-22T05:33:42.392Z,39.92
2018-03-22T05:34:16.478Z,38.75
2018-03-22T05:34:50.374Z,37.83
2018-03-22T05:35:24.246Z,37.25
2018-03-22T05:35:58.281Z,38.83
2018-03-22T05:36:32.163Z,38.90
2018-03-22T05:37:06.015Z,33.35
2018-03-22T05:37:39.882Z,37.03
2018-03-22T05:38:13.745Z,37.95
2018-03-22T05:38:47.638Z,36.85
2018-03-22T05:39:21.509Z,37.03
2018-03-22T05:39:55.448Z,39.55
2018-03-22T05:40:29.282Z,40.50
2018-03-22T05:41:03.262Z,36.80
2018-03-22T05:41:37.127Z,43.92
2018-03-22T05:42:11.154Z,42.62
2018-03-22T05:42:45.017Z,43.38
2018-03-22T05:43:18.892Z,43.47
2018-03-22T05:43:52.757Z,43.83
2018-03-22T05:44:26.795Z,41.60
2018-03-22T05:45:01.005Z,38.42
2018-03-22T05:45:35.116Z,36.60
2018-03-22T05:46:09.016Z,44.00
2018-03-22T05:46:42.906Z,46.35
2018-03-22T05:47:16.904Z,43.55
2018-03-22T05:47:50.786Z,42.55
2018-03-22T05:48:24.677Z,50.05
2018-03-22T05:48:58.541Z,53.25
2018-03-22T05:49:32.436Z,49.22
2018-03-22T05:50:06.311Z,48.13
2018-03-22T05:50:40.266Z,39.33
2018-03-22T05:51:14.138Z,46.80
2018-03-22T05:51:48.005Z,45.47
2018-03-22T05:52:21.993Z,43.10
2018-03-22T05:52:56.263Z,45.67
2018-03-22T05:53:30.125Z,42.75
2018-03-22T05:54:04.374Z,44.15
2018-03-22T05:54:38.243Z,55.33
2018-03-22T05:55:12.112Z,48.83
2018-03-22T05:55:46.001Z,46.10
2018-03-22T05:56:20.036Z,46.53
2018-03-22T05:56:53.911Z,47.47
2018-03-22T05:57:27.781Z,49.10
2018-03-22T05:58:01.642Z,50.50
2018-03-22T05:58:35.496Z,44.38
2018-03-22T05:59:09.374Z,52.15
2018-03-22T05:59:43.263Z,52.70
2018-03-22T06:00:17.299Z,44.55
2018-03-22T06:00:51.165Z,46.42
2018-03-22T06:01:25.033Z,48.47
2018-03-22T06:01:59.100Z,51.17
2018-03-22T06:02:32.967Z,47.42
2018-03-22T06:03:07.006Z,56.03
2018-03-22T06:03:40.869Z,48.92
2018-03-22T06:04:14.736Z,44.70
2018-03-22T06:04:48.872Z,51.60
2018-03-22T06:05:22.754Z,53.65
2018-03-22T06:05:56.883Z,50.08
2018-03-22T06:06:30.780Z,52.70
2018-03-22T06:07:04.660Z,46.90
2018-03-22T06:07:38.551Z,45.88
2018-03-22T06:08:12.442Z,47.00
2018-03-22T06:08:46.454Z,44.80
2018-03-22T06:09:20.320Z,43.87
2018-03-22T06:09:54.186Z,50.85
2018-03-22T06:10:28.244Z,44.63
2018-03-22T06:11:02.124Z,47.38
2018-03-22T06:11:35.996Z,45.58
2018-03-22T06:12:09.873Z,42.85
2018-03-22T06:12:43.742Z,44.30
2018-03-22T06:13:17.598Z,40.47
2018-03-22T06:13:51.464Z,46.08
2018-03-22T06:14:25.727Z,51.20
2018-03-22T06:14:59.607Z,45.03
2018-03-22T06:15:34.194Z,45.12
2018-03-22T06:16:08.074Z,48.78
2018-03-22T06:16:42.139Z,47.15
2018-03-22T06:17:16.083Z,58.65
2018-03-22T06:17:50.241Z,46.08
2018-03-22T06:18:24.114Z,42.17
2018-03-22T06:18:57.969Z,48.47
2018-03-22T06:19:32.022Z,45.40
2018-03-22T06:20:05.887Z,43.55
2018-03-22T06:20:39.910Z,46.28
2018-03-22T06:21:13.783Z,50.85
2018-03-22T06:21:47.788Z,45.53
2018-03-22T06:22:21.983Z,43.42
2018-03-22T06:22:55.863Z,44.17
2018-03-22T06:23:29.875Z,49.17
2018-03-22T06:24:03.752Z,43.83
2018-03-22T06:24:37.623Z,38.17
2018-03-22T06:25:11.506Z,39.95
2018-03-22T06:25:45.420Z,48.70
2018-03-22T06:26:19.298Z,44.00
2018-03-22T06:26:53.213Z,47.03
2018-03-22T06:27:27.343Z,44.40
2018-03-22T06:28:01.238Z,44.60
2018-03-22T06:28:35.136Z,42.53
2018-03-22T06:29:09.056Z,52.13
2018-03-22T06:29:43.890Z,44.03
2018-03-22T06:30:17.739Z,49.67
2018-03-22T06:30:51.645Z,42.15
2018-03-22T06:31:26.312Z,43.05
2018-03-22T06:32:00.192Z,51.40
2018-03-22T06:32:34.207Z,49.10
2018-03-22T06:33:08.098Z,40.90
2018-03-22T06:33:42.068Z,48.40
2018-03-22T06:34:15.962Z,42.65
2018-03-22T06:34:49.931Z,47.20
2018-03-22T06:35:23.801Z,45.90
2018-03-22T06:35:57.853Z,44.50
2018-03-22T06:36:31.721Z,42.05
2018-03-22T06:37:05.593Z,41.40
2018-03-22T06:37:39.609Z,40.67
2018-03-22T06:38:13.473Z,41.72
2018-03-22T06:38:47.464Z,46.25
2018-03-22T06:39:21.514Z,37.90
2018-03-22T06:39:56.017Z,45.20
2018-03-22T06:40:30.008Z,43.38
2018-03-22T06:41:03.930Z,47.15
2018-03-22T06:41:37.904Z,52.40
2018-03-22T06:42:11.905Z,44.95
2018-03-22T06:42:45.802Z,49.58
2018-03-22T06:43:19.664Z,50.42
2018-03-22T06:43:53.526Z,36.78
2018-03-22T06:44:27.538Z,38.95
2018-03-22T06:45:01.768Z,47.25
2018-03-22T06:45:35.641Z,49.78
2018-03-22T06:46:09.528Z,42.83
2018-03-22T06:46:43.394Z,43.95
2018-03-22T06:47:17.360Z,38.45
2018-03-22T06:47:51.260Z,44.55
2018-03-22T06:48:25.481Z,49.13
2018-03-22T06:48:59.359Z,44.03
2018-03-22T06:49:33.333Z,41.05
2018-03-22T06:50:07.169Z,36.55
2018-03-22T06:50:41.036Z,43.55
2018-03-22T06:51:14.911Z,40.90
2018-03-22T06:51:48.770Z,49.38
2018-03-22T06:52:22.731Z,37.70
2018-03-22T06:52:56.658Z,42.08
2018-03-22T06:53:30.648Z,49.08
2018-03-22T06:54:04.495Z,52.75
2018-03-22T06:54:38.357Z,47.20
2018-03-22T06:55:12.206Z,52.38
2018-03-22T06:55:46.064Z,49.28
2018-03-22T06:56:19.960Z,64.53
2018-03-22T06:56:53.871Z,65.45
2018-03-22T06:57:27.738Z,48.83
2018-03-22T06:58:01.816Z,42.20
2018-03-22T06:58:35.681Z,45.08
2018-03-22T06:59:09.585Z,40.15
2018-03-22T06:59:43.453Z,40.60
2018-03-22T07:00:17.385Z,46.70
2018-03-22T07:00:51.268Z,36.70
2018-03-22T07:01:25.186Z,39.97
2018-03-22T07:01:59.073Z,55.17
2018-03-22T07:02:32.978Z,46.50
2018-03-22T07:03:09.292Z,46.05
2018-03-22T07:03:43.243Z,41.17
2018-03-22T07:04:17.712Z,44.05
2018-03-22T07:04:53.030Z,43.10
2018-03-22T07:05:27.198Z,54.40
2018-03-22T07:06:01.239Z,36.30
2018-03-22T07:06:35.349Z,40.53
2018-03-22T07:07:09.233Z,40.10
2018-03-22T07:07:45.364Z,36.75
2018-03-22T07:08:19.380Z,40.92
2018-03-22T07:08:53.264Z,50.03
2018-03-22T07:09:29.481Z,39.90
2018-03-22T07:10:04.884Z,40.97
2018-03-22T07:10:38.849Z,39.25
2018-03-22T07:11:12.744Z,39.58
2018-03-22T07:11:46.810Z,36.05
2018-03-22T07:12:20.686Z,41.97
2018-03-22T07:12:54.647Z,36.83
2018-03-22T07:13:28.508Z,37.30
2018-03-22T07:14:02.660Z,37.40
2018-03-22T07:14:36.552Z,39.03
2018-03-22T07:15:10.431Z,39.78
2018-03-22T07:15:44.294Z,37.35
2018-03-22T07:16:18.166Z,37.30
2018-03-22T07:16:52.062Z,36.45
2018-03-22T07:17:25.950Z,39.20
2018-03-22T07:18:01.036Z,41.97
2018-03-22T07:18:35.076Z,32.55
2018-03-22T07:19:08.963Z,33.80